sensor_id;sensor_type;location;lat;lon;timestamp;P1;durP1;ratioP1;P2;durP2;ratioP2
12441;SDS011;6285;48.804;9.220;2023-04-06T00:01:06;14.27;;;11.00;;
12441;SDS011;6285;48.804;9.220;2023-04-06T00:03:33;13.18;;;11.10;;
12441;SDS011;6285;48.804;9.220;2023-04-06T00:05:59;14.50;;;11.90;;
12441;SDS011;6285;48.804;9.220;2023-04-06T00:08:27;13.95;;;11.43;;
12441;SDS011;6285;48.804;9.220;2023-04-06T00:10:53;21.45;;;12.00;;
12441;SDS011;6285;48.804;9.220;2023-04-06T00:13:22;13.25;;;10.85;;
12441;SDS011;6285;48.804;9.220;2023-04-06T00:15:49;17.42;;;11.38;;
12441;SDS011;6285;48.804;9.220;2023-04-06T00:18:16;16.67;;;10.85;;
12441;SDS011;6285;48.804;9.220;2023-04-06T00:20:44;15.15;;;11.40;;
12441;SDS011;6285;48.804;9.220;2023-04-06T00:23:11;14.75;;;11.20;;
12441;SDS011;6285;48.804;9.220;2023-04-06T00:25:38;16.45;;;11.90;;
12441;SDS011;6285;48.804;9.220;2023-04-06T00:28:05;14.02;;;11.10;;
12441;SDS011;6285;48.804;9.220;2023-04-06T00:30:33;15.73;;;10.95;;
12441;SDS011;6285;48.804;9.220;2023-04-06T00:33:00;12.60;;;11.23;;
12441;SDS011;6285;48.804;9.220;2023-04-06T00:35:28;16.02;;;11.73;;
12441;SDS011;6285;48.804;9.220;2023-04-06T00:37:55;15.02;;;11.65;;
12441;SDS011;6285;48.804;9.220;2023-04-06T00:40:22;13.18;;;11.10;;
12441;SDS011;6285;48.804;9.220;2023-04-06T00:42:49;15.60;;;11.23;;
12441;SDS011;6285;48.804;9.220;2023-04-06T00:45:17;16.63;;;11.02;;
12441;SDS011;6285;48.804;9.220;2023-04-06T00:47:45;14.65;;;11.38;;
12441;SDS011;6285;48.804;9.220;2023-04-06T00:50:12;16.08;;;11.30;;
12441;SDS011;6285;48.804;9.220;2023-04-06T00:52:39;16.35;;;11.18;;
12441;SDS011;6285;48.804;9.220;2023-04-06T00:55:06;14.52;;;11.75;;
12441;SDS011;6285;48.804;9.220;2023-04-06T00:57:33;14.52;;;10.75;;
12441;SDS011;6285;48.804;9.220;2023-04-06T01:00:00;16.75;;;10.93;;
12441;SDS011;6285;48.804;9.220;2023-04-06T01:02:28;16.40;;;10.57;;
12441;SDS011;6285;48.804;9.220;2023-04-06T01:04:56;12.13;;;10.07;;
12441;SDS011;6285;48.804;9.220;2023-04-06T01:07:23;12.05;;;9.82;;
12441;SDS011;6285;48.804;9.220;2023-04-06T01:09:50;14.35;;;10.50;;
12441;SDS011;6285;48.804;9.220;2023-04-06T01:12:17;13.32;;;9.82;;
12441;SDS011;6285;48.804;9.220;2023-04-06T01:14:43;12.73;;;10.35;;
12441;SDS011;6285;48.804;9.220;2023-04-06T01:17:10;13.23;;;9.85;;
12441;SDS011;6285;48.804;9.220;2023-04-06T01:19:38;14.60;;;10.95;;
12441;SDS011;6285;48.804;9.220;2023-04-06T01:22:06;14.18;;;10.50;;
12441;SDS011;6285;48.804;9.220;2023-04-06T01:24:35;15.13;;;10.43;;
12441;SDS011;6285;48.804;9.220;2023-04-06T01:27:02;12.80;;;10.00;;
12441;SDS011;6285;48.804;9.220;2023-04-06T01:29:29;14.15;;;10.07;;
12441;SDS011;6285;48.804;9.220;2023-04-06T01:31:56;13.32;;;10.10;;
12441;SDS011;6285;48.804;9.220;2023-04-06T01:34:23;15.90;;;10.60;;
12441;SDS011;6285;48.804;9.220;2023-04-06T01:36:50;14.98;;;10.55;;
12441;SDS011;6285;48.804;9.220;2023-04-06T01:39:17;13.65;;;10.40;;
12441;SDS011;6285;48.804;9.220;2023-04-06T01:41:45;13.50;;;10.18;;
12441;SDS011;6285;48.804;9.220;2023-04-06T01:44:14;14.50;;;10.93;;
12441;SDS011;6285;48.804;9.220;2023-04-06T01:46:42;14.38;;;10.35;;
12441;SDS011;6285;48.804;9.220;2023-04-06T01:49:10;15.95;;;10.63;;
12441;SDS011;6285;48.804;9.220;2023-04-06T01:51:37;15.48;;;11.27;;
12441;SDS011;6285;48.804;9.220;2023-04-06T01:54:04;21.48;;;12.05;;
12441;SDS011;6285;48.804;9.220;2023-04-06T01:56:31;28.33;;;17.05;;
12441;SDS011;6285;48.804;9.220;2023-04-06T01:58:59;13.00;;;10.55;;
12441;SDS011;6285;48.804;9.220;2023-04-06T02:01:27;18.90;;;13.43;;
12441;SDS011;6285;48.804;9.220;2023-04-06T02:03:54;13.45;;;10.60;;
12441;SDS011;6285;48.804;9.220;2023-04-06T02:06:21;18.40;;;13.57;;
12441;SDS011;6285;48.804;9.220;2023-04-06T02:08:47;14.68;;;11.85;;
12441;SDS011;6285;48.804;9.220;2023-04-06T02:11:14;16.17;;;12.32;;
12441;SDS011;6285;48.804;9.220;2023-04-06T02:13:41;15.80;;;11.35;;
12441;SDS011;6285;48.804;9.220;2023-04-06T02:16:10;16.73;;;11.32;;
12441;SDS011;6285;48.804;9.220;2023-04-06T02:18:36;15.80;;;11.60;;
12441;SDS011;6285;48.804;9.220;2023-04-06T02:21:04;14.30;;;10.50;;
12441;SDS011;6285;48.804;9.220;2023-04-06T02:23:30;19.02;;;13.48;;
12441;SDS011;6285;48.804;9.220;2023-04-06T02:25:57;13.18;;;9.68;;
12441;SDS011;6285;48.804;9.220;2023-04-06T02:28:25;13.57;;;10.05;;
12441;SDS011;6285;48.804;9.220;2023-04-06T02:30:52;14.05;;;10.55;;
12441;SDS011;6285;48.804;9.220;2023-04-06T02:33:20;11.20;;;9.98;;
12441;SDS011;6285;48.804;9.220;2023-04-06T02:35:47;13.90;;;9.65;;
12441;SDS011;6285;48.804;9.220;2023-04-06T02:38:14;13.18;;;9.90;;
12441;SDS011;6285;48.804;9.220;2023-04-06T02:40:41;11.38;;;9.80;;
12441;SDS011;6285;48.804;9.220;2023-04-06T02:43:09;15.38;;;10.40;;
12441;SDS011;6285;48.804;9.220;2023-04-06T02:45:35;15.15;;;10.63;;
12441;SDS011;6285;48.804;9.220;2023-04-06T02:48:02;14.07;;;10.63;;
12441;SDS011;6285;48.804;9.220;2023-04-06T02:50:31;14.38;;;10.13;;
12441;SDS011;6285;48.804;9.220;2023-04-06T02:52:57;15.88;;;10.73;;
12441;SDS011;6285;48.804;9.220;2023-04-06T02:55:25;15.07;;;10.77;;
12441;SDS011;6285;48.804;9.220;2023-04-06T02:57:52;16.08;;;11.48;;
12441;SDS011;6285;48.804;9.220;2023-04-06T03:00:19;13.75;;;10.88;;
12441;SDS011;6285;48.804;9.220;2023-04-06T03:02:46;13.48;;;11.45;;
12441;SDS011;6285;48.804;9.220;2023-04-06T03:05:13;15.60;;;10.60;;
12441;SDS011;6285;48.804;9.220;2023-04-06T03:07:42;15.38;;;11.85;;
12441;SDS011;6285;48.804;9.220;2023-04-06T03:10:09;14.13;;;11.57;;
12441;SDS011;6285;48.804;9.220;2023-04-06T03:12:36;17.40;;;11.60;;
12441;SDS011;6285;48.804;9.220;2023-04-06T03:15:03;18.98;;;13.02;;
12441;SDS011;6285;48.804;9.220;2023-04-06T03:17:30;17.23;;;12.45;;
12441;SDS011;6285;48.804;9.220;2023-04-06T03:19:57;20.42;;;13.05;;
12441;SDS011;6285;48.804;9.220;2023-04-06T03:22:24;17.08;;;11.93;;
12441;SDS011;6285;48.804;9.220;2023-04-06T03:24:53;14.05;;;11.18;;
12441;SDS011;6285;48.804;9.220;2023-04-06T03:27:20;17.98;;;12.25;;
12441;SDS011;6285;48.804;9.220;2023-04-06T03:29:47;18.63;;;12.10;;
12441;SDS011;6285;48.804;9.220;2023-04-06T03:32:14;16.52;;;12.32;;
12441;SDS011;6285;48.804;9.220;2023-04-06T03:34:40;16.70;;;12.77;;
12441;SDS011;6285;48.804;9.220;2023-04-06T03:37:07;18.65;;;12.45;;
12441;SDS011;6285;48.804;9.220;2023-04-06T03:39:34;19.10;;;12.27;;
12441;SDS011;6285;48.804;9.220;2023-04-06T03:42:03;15.75;;;12.88;;
12441;SDS011;6285;48.804;9.220;2023-04-06T03:44:30;18.70;;;13.45;;
12441;SDS011;6285;48.804;9.220;2023-04-06T03:46:57;18.45;;;13.30;;
12441;SDS011;6285;48.804;9.220;2023-04-06T03:49:24;16.60;;;12.38;;
12441;SDS011;6285;48.804;9.220;2023-04-06T03:51:51;16.88;;;13.02;;
12441;SDS011;6285;48.804;9.220;2023-04-06T03:54:18;17.77;;;13.05;;
12441;SDS011;6285;48.804;9.220;2023-04-06T03:56:45;18.88;;;13.73;;
12441;SDS011;6285;48.804;9.220;2023-04-06T03:59:13;19.50;;;13.65;;
12441;SDS011;6285;48.804;9.220;2023-04-06T04:01:41;20.92;;;14.07;;
12441;SDS011;6285;48.804;9.220;2023-04-06T04:04:08;20.63;;;13.65;;
12441;SDS011;6285;48.804;9.220;2023-04-06T04:06:35;18.02;;;13.13;;
12441;SDS011;6285;48.804;9.220;2023-04-06T04:09:02;17.55;;;12.68;;
12441;SDS011;6285;48.804;9.220;2023-04-06T04:11:29;16.50;;;12.65;;
12441;SDS011;6285;48.804;9.220;2023-04-06T04:13:56;17.88;;;13.02;;
12441;SDS011;6285;48.804;9.220;2023-04-06T04:16:24;17.10;;;12.93;;
12441;SDS011;6285;48.804;9.220;2023-04-06T04:18:51;14.95;;;12.60;;
12441;SDS011;6285;48.804;9.220;2023-04-06T04:21:19;15.52;;;11.98;;
12441;SDS011;6285;48.804;9.220;2023-04-06T04:23:46;19.88;;;12.65;;
12441;SDS011;6285;48.804;9.220;2023-04-06T04:26:12;21.20;;;12.63;;
12441;SDS011;6285;48.804;9.220;2023-04-06T04:28:39;18.00;;;13.52;;
12441;SDS011;6285;48.804;9.220;2023-04-06T04:31:06;20.10;;;13.73;;
12441;SDS011;6285;48.804;9.220;2023-04-06T04:33:35;17.77;;;13.73;;
12441;SDS011;6285;48.804;9.220;2023-04-06T04:36:02;20.35;;;14.10;;
12441;SDS011;6285;48.804;9.220;2023-04-06T04:38:29;20.55;;;13.70;;
12441;SDS011;6285;48.804;9.220;2023-04-06T04:40:56;18.35;;;13.55;;
12441;SDS011;6285;48.804;9.220;2023-04-06T04:43:23;18.65;;;14.10;;
12441;SDS011;6285;48.804;9.220;2023-04-06T04:45:49;21.00;;;13.68;;
12441;SDS011;6285;48.804;9.220;2023-04-06T04:48:17;19.80;;;14.40;;
12441;SDS011;6285;48.804;9.220;2023-04-06T04:50:45;25.42;;;14.10;;
12441;SDS011;6285;48.804;9.220;2023-04-06T04:53:12;23.05;;;14.48;;
12441;SDS011;6285;48.804;9.220;2023-04-06T04:55:39;19.42;;;13.35;;
12441;SDS011;6285;48.804;9.220;2023-04-06T04:58:06;19.95;;;13.27;;
12441;SDS011;6285;48.804;9.220;2023-04-06T05:00:33;19.27;;;13.63;;
12441;SDS011;6285;48.804;9.220;2023-04-06T05:03:01;21.58;;;13.60;;
12441;SDS011;6285;48.804;9.220;2023-04-06T05:05:28;17.58;;;12.93;;
12441;SDS011;6285;48.804;9.220;2023-04-06T05:07:56;17.38;;;12.82;;
12441;SDS011;6285;48.804;9.220;2023-04-06T05:10:23;21.30;;;13.93;;
12441;SDS011;6285;48.804;9.220;2023-04-06T05:12:50;18.20;;;12.32;;
12441;SDS011;6285;48.804;9.220;2023-04-06T05:15:17;19.83;;;13.48;;
12441;SDS011;6285;48.804;9.220;2023-04-06T05:17:44;16.83;;;12.75;;
12441;SDS011;6285;48.804;9.220;2023-04-06T05:20:11;19.75;;;13.48;;
12441;SDS011;6285;48.804;9.220;2023-04-06T05:22:38;18.92;;;14.00;;
12441;SDS011;6285;48.804;9.220;2023-04-06T05:25:07;17.70;;;13.38;;
12441;SDS011;6285;48.804;9.220;2023-04-06T05:27:34;16.80;;;12.70;;
12441;SDS011;6285;48.804;9.220;2023-04-06T05:30:01;18.73;;;13.35;;
12441;SDS011;6285;48.804;9.220;2023-04-06T05:32:28;20.20;;;12.73;;
12441;SDS011;6285;48.804;9.220;2023-04-06T05:34:55;21.00;;;12.90;;
12441;SDS011;6285;48.804;9.220;2023-04-06T05:37:22;18.15;;;13.48;;
12441;SDS011;6285;48.804;9.220;2023-04-06T05:39:49;19.98;;;13.55;;
12441;SDS011;6285;48.804;9.220;2023-04-06T05:42:18;20.92;;;12.90;;
12441;SDS011;6285;48.804;9.220;2023-04-06T05:44:45;18.70;;;13.13;;
12441;SDS011;6285;48.804;9.220;2023-04-06T05:47:12;16.70;;;12.45;;
12441;SDS011;6285;48.804;9.220;2023-04-06T05:49:41;22.13;;;12.70;;
12441;SDS011;6285;48.804;9.220;2023-04-06T05:52:08;22.45;;;13.05;;
12441;SDS011;6285;48.804;9.220;2023-04-06T05:54:35;17.42;;;11.98;;
12441;SDS011;6285;48.804;9.220;2023-04-06T05:57:02;18.05;;;12.73;;
12441;SDS011;6285;48.804;9.220;2023-04-06T05:59:30;21.63;;;12.75;;
12441;SDS011;6285;48.804;9.220;2023-04-06T06:01:57;24.70;;;12.63;;
12441;SDS011;6285;48.804;9.220;2023-04-06T06:04:26;18.30;;;12.82;;
12441;SDS011;6285;48.804;9.220;2023-04-06T06:06:53;23.30;;;13.35;;
12441;SDS011;6285;48.804;9.220;2023-04-06T06:09:20;17.60;;;12.40;;
12441;SDS011;6285;48.804;9.220;2023-04-06T06:11:46;18.17;;;12.13;;
12441;SDS011;6285;48.804;9.220;2023-04-06T06:14:13;20.25;;;12.75;;
12441;SDS011;6285;48.804;9.220;2023-04-06T06:16:41;22.77;;;12.68;;
12441;SDS011;6285;48.804;9.220;2023-04-06T06:19:08;20.35;;;13.27;;
12441;SDS011;6285;48.804;9.220;2023-04-06T06:21:35;23.98;;;13.07;;
12441;SDS011;6285;48.804;9.220;2023-04-06T06:24:02;24.42;;;12.80;;
12441;SDS011;6285;48.804;9.220;2023-04-06T06:26:29;19.17;;;13.43;;
12441;SDS011;6285;48.804;9.220;2023-04-06T06:28:56;18.48;;;12.15;;
12441;SDS011;6285;48.804;9.220;2023-04-06T06:31:23;19.15;;;12.65;;
12441;SDS011;6285;48.804;9.220;2023-04-06T06:33:51;21.65;;;13.07;;
12441;SDS011;6285;48.804;9.220;2023-04-06T06:36:18;21.42;;;12.85;;
12441;SDS011;6285;48.804;9.220;2023-04-06T06:38:44;20.27;;;12.90;;
12441;SDS011;6285;48.804;9.220;2023-04-06T06:41:11;16.00;;;12.35;;
12441;SDS011;6285;48.804;9.220;2023-04-06T06:43:39;16.75;;;12.38;;
12441;SDS011;6285;48.804;9.220;2023-04-06T06:46:05;19.38;;;12.55;;
12441;SDS011;6285;48.804;9.220;2023-04-06T06:48:32;15.27;;;11.45;;
12441;SDS011;6285;48.804;9.220;2023-04-06T06:51:01;15.88;;;12.27;;
12441;SDS011;6285;48.804;9.220;2023-04-06T06:53:27;19.45;;;11.68;;
12441;SDS011;6285;48.804;9.220;2023-04-06T06:55:54;18.27;;;11.75;;
12441;SDS011;6285;48.804;9.220;2023-04-06T06:58:21;18.48;;;11.43;;
12441;SDS011;6285;48.804;9.220;2023-04-06T07:00:48;17.00;;;11.73;;
12441;SDS011;6285;48.804;9.220;2023-04-06T07:03:16;15.52;;;11.57;;
12441;SDS011;6285;48.804;9.220;2023-04-06T07:05:45;23.65;;;12.27;;
12441;SDS011;6285;48.804;9.220;2023-04-06T07:08:16;32.72;;;12.60;;
12441;SDS011;6285;48.804;9.220;2023-04-06T07:10:43;17.55;;;12.23;;
12441;SDS011;6285;48.804;9.220;2023-04-06T07:13:09;17.60;;;11.55;;
12441;SDS011;6285;48.804;9.220;2023-04-06T07:15:37;13.93;;;10.98;;
12441;SDS011;6285;48.804;9.220;2023-04-06T07:18:04;16.75;;;11.50;;
12441;SDS011;6285;48.804;9.220;2023-04-06T07:20:31;18.48;;;11.27;;
12441;SDS011;6285;48.804;9.220;2023-04-06T07:22:57;11.20;;;9.90;;
12441;SDS011;6285;48.804;9.220;2023-04-06T07:25:25;15.23;;;10.48;;
12441;SDS011;6285;48.804;9.220;2023-04-06T07:27:52;13.05;;;9.88;;
12441;SDS011;6285;48.804;9.220;2023-04-06T07:30:19;15.70;;;10.70;;
12441;SDS011;6285;48.804;9.220;2023-04-06T07:32:47;13.10;;;9.73;;
12441;SDS011;6285;48.804;9.220;2023-04-06T07:35:14;15.98;;;10.95;;
12441;SDS011;6285;48.804;9.220;2023-04-06T07:37:41;16.15;;;10.57;;
12441;SDS011;6285;48.804;9.220;2023-04-06T07:40:08;14.57;;;10.02;;
12441;SDS011;6285;48.804;9.220;2023-04-06T07:42:37;16.17;;;11.38;;
12441;SDS011;6285;48.804;9.220;2023-04-06T07:45:04;14.88;;;10.73;;
12441;SDS011;6285;48.804;9.220;2023-04-06T07:47:31;13.75;;;10.35;;
12441;SDS011;6285;48.804;9.220;2023-04-06T07:49:58;14.18;;;10.10;;
12441;SDS011;6285;48.804;9.220;2023-04-06T07:52:25;13.52;;;10.70;;
12441;SDS011;6285;48.804;9.220;2023-04-06T07:54:52;12.05;;;10.52;;
12441;SDS011;6285;48.804;9.220;2023-04-06T07:57:19;14.52;;;10.10;;
12441;SDS011;6285;48.804;9.220;2023-04-06T07:59:47;12.63;;;10.48;;
12441;SDS011;6285;48.804;9.220;2023-04-06T08:02:14;13.07;;;10.30;;
12441;SDS011;6285;48.804;9.220;2023-04-06T08:04:41;12.05;;;10.60;;
12441;SDS011;6285;48.804;9.220;2023-04-06T08:07:09;12.60;;;10.55;;
12441;SDS011;6285;48.804;9.220;2023-04-06T08:09:36;13.68;;;11.10;;
12441;SDS011;6285;48.804;9.220;2023-04-06T08:12:03;11.25;;;9.95;;
12441;SDS011;6285;48.804;9.220;2023-04-06T08:14:30;14.80;;;10.30;;
12441;SDS011;6285;48.804;9.220;2023-04-06T08:16:59;12.13;;;10.38;;
12441;SDS011;6285;48.804;9.220;2023-04-06T08:19:26;14.48;;;10.23;;
12441;SDS011;6285;48.804;9.220;2023-04-06T08:21:53;14.15;;;10.52;;
12441;SDS011;6285;48.804;9.220;2023-04-06T08:24:19;13.05;;;10.18;;
12441;SDS011;6285;48.804;9.220;2023-04-06T08:26:46;14.30;;;11.13;;
12441;SDS011;6285;48.804;9.220;2023-04-06T08:29:13;15.32;;;10.82;;
12441;SDS011;6285;48.804;9.220;2023-04-06T08:31:41;14.05;;;11.48;;
12441;SDS011;6285;48.804;9.220;2023-04-06T08:34:09;12.38;;;11.07;;
12441;SDS011;6285;48.804;9.220;2023-04-06T08:36:36;14.38;;;11.90;;
12441;SDS011;6285;48.804;9.220;2023-04-06T08:39:03;12.35;;;10.32;;
12441;SDS011;6285;48.804;9.220;2023-04-06T08:41:30;13.30;;;10.02;;
12441;SDS011;6285;48.804;9.220;2023-04-06T08:43:58;14.82;;;10.18;;
12441;SDS011;6285;48.804;9.220;2023-04-06T08:46:26;11.63;;;10.27;;
12441;SDS011;6285;48.804;9.220;2023-04-06T08:48:54;12.10;;;10.80;;
12441;SDS011;6285;48.804;9.220;2023-04-06T08:51:24;13.07;;;10.95;;
12441;SDS011;6285;48.804;9.220;2023-04-06T08:53:52;12.15;;;10.18;;
12441;SDS011;6285;48.804;9.220;2023-04-06T08:56:20;18.85;;;10.73;;
12441;SDS011;6285;48.804;9.220;2023-04-06T08:58:48;13.93;;;10.70;;
12441;SDS011;6285;48.804;9.220;2023-04-06T09:01:17;12.38;;;10.88;;
12441;SDS011;6285;48.804;9.220;2023-04-06T09:03:44;15.63;;;10.48;;
12441;SDS011;6285;48.804;9.220;2023-04-06T09:06:13;13.50;;;9.82;;
12441;SDS011;6285;48.804;9.220;2023-04-06T09:08:41;11.75;;;10.45;;
12441;SDS011;6285;48.804;9.220;2023-04-06T09:11:08;12.32;;;11.07;;
12441;SDS011;6285;48.804;9.220;2023-04-06T09:13:45;12.15;;;9.63;;
12441;SDS011;6285;48.804;9.220;2023-04-06T09:16:13;11.73;;;9.45;;
12441;SDS011;6285;48.804;9.220;2023-04-06T09:18:40;10.63;;;9.60;;
12441;SDS011;6285;48.804;9.220;2023-04-06T09:21:08;10.85;;;9.68;;
12441;SDS011;6285;48.804;9.220;2023-04-06T09:23:35;10.77;;;9.68;;
12441;SDS011;6285;48.804;9.220;2023-04-06T09:26:07;10.43;;;9.43;;
12441;SDS011;6285;48.804;9.220;2023-04-06T09:28:42;11.18;;;9.48;;
12441;SDS011;6285;48.804;9.220;2023-04-06T09:31:09;10.68;;;9.52;;
12441;SDS011;6285;48.804;9.220;2023-04-06T09:33:37;10.80;;;9.60;;
12441;SDS011;6285;48.804;9.220;2023-04-06T09:36:05;10.32;;;9.32;;
12441;SDS011;6285;48.804;9.220;2023-04-06T09:38:34;10.98;;;9.88;;
12441;SDS011;6285;48.804;9.220;2023-04-06T09:41:01;11.50;;;10.30;;
12441;SDS011;6285;48.804;9.220;2023-04-06T09:43:29;11.65;;;9.85;;
12441;SDS011;6285;48.804;9.220;2023-04-06T09:45:56;10.18;;;9.18;;
12441;SDS011;6285;48.804;9.220;2023-04-06T09:48:24;10.93;;;9.80;;
12441;SDS011;6285;48.804;9.220;2023-04-06T09:50:52;12.48;;;9.93;;
12441;SDS011;6285;48.804;9.220;2023-04-06T09:53:21;12.10;;;10.35;;
12441;SDS011;6285;48.804;9.220;2023-04-06T09:55:48;12.15;;;10.48;;
12441;SDS011;6285;48.804;9.220;2023-04-06T09:58:17;13.45;;;11.00;;
12441;SDS011;6285;48.804;9.220;2023-04-06T10:00:54;12.18;;;9.43;;
12441;SDS011;6285;48.804;9.220;2023-04-06T10:03:25;9.85;;;8.32;;
12441;SDS011;6285;48.804;9.220;2023-04-06T10:05:59;10.40;;;7.88;;
12441;SDS011;6285;48.804;9.220;2023-04-06T10:08:30;9.00;;;8.10;;
12441;SDS011;6285;48.804;9.220;2023-04-06T10:11:01;11.85;;;7.68;;
12441;SDS011;6285;48.804;9.220;2023-04-06T10:13:28;7.35;;;6.65;;
12441;SDS011;6285;48.804;9.220;2023-04-06T10:15:56;7.43;;;6.72;;
12441;SDS011;6285;48.804;9.220;2023-04-06T10:18:25;8.77;;;7.50;;
12441;SDS011;6285;48.804;9.220;2023-04-06T10:20:53;7.13;;;6.43;;
12441;SDS011;6285;48.804;9.220;2023-04-06T10:23:26;10.23;;;7.72;;
12441;SDS011;6285;48.804;9.220;2023-04-06T10:25:59;9.07;;;7.65;;
12441;SDS011;6285;48.804;9.220;2023-04-06T10:28:30;8.75;;;7.88;;
12441;SDS011;6285;48.804;9.220;2023-04-06T10:31:00;9.43;;;8.30;;
12441;SDS011;6285;48.804;9.220;2023-04-06T10:33:27;10.15;;;8.10;;
12441;SDS011;6285;48.804;9.220;2023-04-06T10:35:54;8.70;;;7.85;;
12441;SDS011;6285;48.804;9.220;2023-04-06T10:38:21;10.02;;;7.55;;
12441;SDS011;6285;48.804;9.220;2023-04-06T10:41:03;9.60;;;8.07;;
12441;SDS011;6285;48.804;9.220;2023-04-06T10:43:32;8.35;;;7.07;;
12441;SDS011;6285;48.804;9.220;2023-04-06T10:46:01;8.48;;;7.05;;
12441;SDS011;6285;48.804;9.220;2023-04-06T10:48:36;8.80;;;7.40;;
12441;SDS011;6285;48.804;9.220;2023-04-06T10:51:06;7.80;;;7.05;;
12441;SDS011;6285;48.804;9.220;2023-04-06T10:53:34;9.20;;;6.82;;
12441;SDS011;6285;48.804;9.220;2023-04-06T10:56:01;7.30;;;6.60;;
12441;SDS011;6285;48.804;9.220;2023-04-06T10:58:30;7.38;;;6.68;;
12441;SDS011;6285;48.804;9.220;2023-04-06T11:00:57;7.88;;;6.60;;
12441;SDS011;6285;48.804;9.220;2023-04-06T11:03:26;8.05;;;7.05;;
12441;SDS011;6285;48.804;9.220;2023-04-06T11:05:52;7.18;;;6.47;;
12441;SDS011;6285;48.804;9.220;2023-04-06T11:08:24;7.35;;;6.65;;
12441;SDS011;6285;48.804;9.220;2023-04-06T11:10:51;7.85;;;6.65;;
12441;SDS011;6285;48.804;9.220;2023-04-06T11:13:18;7.97;;;6.22;;
12441;SDS011;6285;48.804;9.220;2023-04-06T11:15:45;7.53;;;6.28;;
12441;SDS011;6285;48.804;9.220;2023-04-06T11:18:16;7.03;;;5.95;;
12441;SDS011;6285;48.804;9.220;2023-04-06T11:20:48;7.65;;;6.35;;
12441;SDS011;6285;48.804;9.220;2023-04-06T11:23:21;7.43;;;6.75;;
12441;SDS011;6285;48.804;9.220;2023-04-06T11:25:50;8.02;;;6.53;;
12441;SDS011;6285;48.804;9.220;2023-04-06T11:28:17;8.48;;;6.38;;
12441;SDS011;6285;48.804;9.220;2023-04-06T11:30:44;7.57;;;6.80;;
12441;SDS011;6285;48.804;9.220;2023-04-06T11:33:11;7.70;;;6.70;;
12441;SDS011;6285;48.804;9.220;2023-04-06T11:35:48;7.10;;;6.07;;
12441;SDS011;6285;48.804;9.220;2023-04-06T11:38:16;6.07;;;5.47;;
12441;SDS011;6285;48.804;9.220;2023-04-06T11:40:44;6.60;;;6.00;;
12441;SDS011;6285;48.804;9.220;2023-04-06T11:43:12;6.65;;;6.03;;
12441;SDS011;6285;48.804;9.220;2023-04-06T11:45:39;6.65;;;5.80;;
12441;SDS011;6285;48.804;9.220;2023-04-06T11:48:16;7.47;;;5.63;;
12441;SDS011;6285;48.804;9.220;2023-04-06T11:50:45;8.43;;;6.70;;
12441;SDS011;6285;48.804;9.220;2023-04-06T11:53:14;7.20;;;6.30;;
12441;SDS011;6285;48.804;9.220;2023-04-06T11:55:41;8.95;;;6.47;;
12441;SDS011;6285;48.804;9.220;2023-04-06T11:58:11;8.43;;;6.45;;
12441;SDS011;6285;48.804;9.220;2023-04-06T12:00:38;8.85;;;6.50;;
12441;SDS011;6285;48.804;9.220;2023-04-06T12:03:09;9.15;;;6.60;;
12441;SDS011;6285;48.804;9.220;2023-04-06T12:05:36;7.47;;;5.85;;
12441;SDS011;6285;48.804;9.220;2023-04-06T12:08:03;7.05;;;5.75;;
12441;SDS011;6285;48.804;9.220;2023-04-06T12:10:32;8.82;;;5.97;;
12441;SDS011;6285;48.804;9.220;2023-04-06T12:12:59;8.57;;;6.10;;
12441;SDS011;6285;48.804;9.220;2023-04-06T12:15:26;8.85;;;6.10;;
12441;SDS011;6285;48.804;9.220;2023-04-06T12:17:53;6.63;;;5.80;;
12441;SDS011;6285;48.804;9.220;2023-04-06T12:20:20;8.05;;;6.47;;
12441;SDS011;6285;48.804;9.220;2023-04-06T12:22:47;7.82;;;6.30;;
12441;SDS011;6285;48.804;9.220;2023-04-06T12:25:14;10.73;;;6.55;;
12441;SDS011;6285;48.804;9.220;2023-04-06T12:27:43;6.72;;;6.03;;
12441;SDS011;6285;48.804;9.220;2023-04-06T12:30:10;8.18;;;7.03;;
12441;SDS011;6285;48.804;9.220;2023-04-06T12:32:37;8.43;;;6.25;;
12441;SDS011;6285;48.804;9.220;2023-04-06T12:35:04;8.18;;;6.50;;
12441;SDS011;6285;48.804;9.220;2023-04-06T12:37:33;9.82;;;6.30;;
12441;SDS011;6285;48.804;9.220;2023-04-06T12:40:01;8.15;;;6.50;;
12441;SDS011;6285;48.804;9.220;2023-04-06T12:42:29;6.95;;;6.22;;
12441;SDS011;6285;48.804;9.220;2023-04-06T12:44:57;7.15;;;6.00;;
12441;SDS011;6285;48.804;9.220;2023-04-06T12:47:25;7.15;;;6.43;;
12441;SDS011;6285;48.804;9.220;2023-04-06T12:49:52;7.65;;;6.47;;
12441;SDS011;6285;48.804;9.220;2023-04-06T12:52:20;7.53;;;6.28;;
12441;SDS011;6285;48.804;9.220;2023-04-06T12:54:48;7.55;;;5.97;;
12441;SDS011;6285;48.804;9.220;2023-04-06T12:57:17;8.15;;;6.70;;
12441;SDS011;6285;48.804;9.220;2023-04-06T12:59:46;8.25;;;6.72;;
12441;SDS011;6285;48.804;9.220;2023-04-06T13:02:14;8.90;;;6.40;;
12441;SDS011;6285;48.804;9.220;2023-04-06T13:04:42;7.78;;;6.85;;
12441;SDS011;6285;48.804;9.220;2023-04-06T13:07:09;6.80;;;6.10;;
12441;SDS011;6285;48.804;9.220;2023-04-06T13:09:36;7.90;;;6.00;;
12441;SDS011;6285;48.804;9.220;2023-04-06T13:12:02;7.07;;;6.38;;
12441;SDS011;6285;48.804;9.220;2023-04-06T13:14:30;6.85;;;6.13;;
12441;SDS011;6285;48.804;9.220;2023-04-06T13:16:57;10.10;;;6.10;;
12441;SDS011;6285;48.804;9.220;2023-04-06T13:19:25;7.95;;;5.90;;
12441;SDS011;6285;48.804;9.220;2023-04-06T13:21:53;7.45;;;6.03;;
12441;SDS011;6285;48.804;9.220;2023-04-06T13:24:20;6.95;;;6.25;;
12441;SDS011;6285;48.804;9.220;2023-04-06T13:26:48;8.18;;;6.13;;
12441;SDS011;6285;48.804;9.220;2023-04-06T13:29:14;8.50;;;5.60;;
12441;SDS011;6285;48.804;9.220;2023-04-06T13:31:42;7.47;;;6.57;;
12441;SDS011;6285;48.804;9.220;2023-04-06T13:34:09;8.00;;;7.10;;
12441;SDS011;6285;48.804;9.220;2023-04-06T13:36:37;7.78;;;5.75;;
12441;SDS011;6285;48.804;9.220;2023-04-06T13:39:06;7.53;;;5.80;;
12441;SDS011;6285;48.804;9.220;2023-04-06T13:41:33;6.55;;;5.68;;
12441;SDS011;6285;48.804;9.220;2023-04-06T13:44:00;7.10;;;5.53;;
12441;SDS011;6285;48.804;9.220;2023-04-06T13:46:27;7.68;;;6.65;;
12441;SDS011;6285;48.804;9.220;2023-04-06T13:48:54;7.32;;;5.93;;
12441;SDS011;6285;48.804;9.220;2023-04-06T13:51:21;9.98;;;6.25;;
12441;SDS011;6285;48.804;9.220;2023-04-06T13:53:49;9.75;;;7.13;;
12441;SDS011;6285;48.804;9.220;2023-04-06T13:56:17;8.32;;;7.40;;
12441;SDS011;6285;48.804;9.220;2023-04-06T13:58:44;7.65;;;6.28;;
12441;SDS011;6285;48.804;9.220;2023-04-06T14:01:11;7.60;;;5.80;;
12441;SDS011;6285;48.804;9.220;2023-04-06T14:03:38;6.60;;;5.28;;
12441;SDS011;6285;48.804;9.220;2023-04-06T14:06:10;7.25;;;5.65;;
12441;SDS011;6285;48.804;9.220;2023-04-06T14:08:37;9.27;;;5.97;;
12441;SDS011;6285;48.804;9.220;2023-04-06T14:11:06;8.77;;;5.90;;
12441;SDS011;6285;48.804;9.220;2023-04-06T14:13:33;7.22;;;5.53;;
12441;SDS011;6285;48.804;9.220;2023-04-06T14:16:00;9.32;;;5.95;;
12441;SDS011;6285;48.804;9.220;2023-04-06T14:18:28;6.85;;;5.80;;
12441;SDS011;6285;48.804;9.220;2023-04-06T14:20:56;8.05;;;5.72;;
12441;SDS011;6285;48.804;9.220;2023-04-06T14:23:23;6.97;;;6.13;;
12441;SDS011;6285;48.804;9.220;2023-04-06T14:25:51;7.13;;;5.55;;
12441;SDS011;6285;48.804;9.220;2023-04-06T14:28:20;6.45;;;5.57;;
12441;SDS011;6285;48.804;9.220;2023-04-06T14:30:47;7.65;;;6.00;;
12441;SDS011;6285;48.804;9.220;2023-04-06T14:33:14;8.10;;;6.10;;
12441;SDS011;6285;48.804;9.220;2023-04-06T14:35:41;10.63;;;5.97;;
12441;SDS011;6285;48.804;9.220;2023-04-06T14:38:08;6.95;;;5.68;;
12441;SDS011;6285;48.804;9.220;2023-04-06T14:40:35;7.18;;;5.78;;
12441;SDS011;6285;48.804;9.220;2023-04-06T14:43:02;7.90;;;5.90;;
12441;SDS011;6285;48.804;9.220;2023-04-06T14:45:32;7.55;;;5.65;;